STJ - Rosecrans Meml

Pirep is a free, collaborative database of all public and private airports located within the United States. All pilots are welcome to contribute, edit, and improve any airport they have local knowledge about, no registration required.
Uploaded photos will be licensed under a CC BY-SA 4.0 license. Please only upload photos you have the rights to use.
Tags
Public
Food
Events
METAR / TAF
Edit Tags
Camping
Lodging
Car Rental
Bicycles
Swimming
Golfing
Fishing
Hot Springs
Museum
Flying Clubs
Airpark
Upcoming Events
*
*
*

Where exactly on/near the airport is this event taking place?

Is there a webpage with more information for this event?

Who should be contacted for more information?

What is this event all about?

Repeat every
Description
Last updated: 2023-06-14 23:06:38 CDT
Transient Parking
Fuel Location
Landing & Tie-down Fees
Crew Car Availability
Flying Clubs
WiFi Access
Airport Statistics
Location: St Joseph, MO
Elevation: 826ft
Sectional: Kansas City
Activation date: Apr 1940
Fuel: 100LL, A (prices)
Runway 17/35: 8,061ft
Runway 13/31: 4,797ft
Access: Open to the public
Current Weather — VFR
  • Weather data is strictly informational and not for flight planning purposes.
  • METAR
    2024-04-24 06:53:00 CDT
    Ceiling Wind Temperature Dewpoint Weather Visbility
    Sky clear Calm 42°F 39°F N/A 10SM
    Raw: KSTJ 241153Z AUTO 00000KT 10SM CLR 06/04 A3019 RMK AO2 SLP221 6//// 7//// T00560039
  • TAF
    2024-04-24 07:00:00 CDT – 2024-04-24 10:00:00 CDT
    Ceiling Wind Weather Visbility
    Sky clear 360° @ 5kt N/A 6SM
    Clouds: Scattered @ 20,000ft
    Raw: KSTJ 241120Z 2412/2512 36005KT P6SM SCT200 FM241500 09006KT P6SM BKN120
  • TAF
    2024-04-24 10:00:00 CDT – 2024-04-25 07:00:00 CDT
    Ceiling Wind Weather Visbility
    12,000ft 90° @ 6kt N/A 6SM
    Clouds: Broken @ 12,000ft
    Raw: KSTJ 241120Z 2412/2512 36005KT P6SM SCT200 FM241500 09006KT P6SM BKN120
Click/tap to add an annotation marker to the map
Airport Webcams
No webcams added yet.
Direct links to live image URLs will be displayed inline on this page. URLs to separate webpages will be linked to.
URL:
Direct links to live image URLs will be displayed inline on this page. URLs to separate webpages will be linked to.
URL:
Remarks
  • Rwy 13/31 not avbl for scheduled acr opns with more than 9 psgr seats or unscheduled acr at least 31 psgr seats
  • Clsd to acr opns over 30 psgr seats except 48 hrs ppr; call amgr (816) 271-4886. for assistance in arff index c ctc air national guard.
  • For advy & position info call stj atct or montr atct freq when clsd.
  • Arpt clsd to acft ovr 350000 lbs except ppr.
  • Arff avbl by ang.
Comments
Leave a comment What was your experience like at this airport?